sensor_id;sensor_type;location;lat;lon;timestamp;temperature;humidity
40077;DHT22;25777;47.824;18.982;2023-04-24T00:03:38;8.40;99.90
40077;DHT22;25777;47.824;18.982;2023-04-24T00:06:06;8.50;99.90
40077;DHT22;25777;47.824;18.982;2023-04-24T00:08:38;8.40;99.90
40077;DHT22;25777;47.824;18.982;2023-04-24T00:13:39;8.20;99.90
40077;DHT22;25777;47.824;18.982;2023-04-24T00:16:06;8.10;99.90
40077;DHT22;25777;47.824;18.982;2023-04-24T00:18:37;8.30;99.90
40077;DHT22;25777;47.824;18.982;2023-04-24T00:23:44;8.20;99.90
40077;DHT22;25777;47.824;18.982;2023-04-24T00:26:18;8.10;99.90
40077;DHT22;25777;47.824;18.982;2023-04-24T00:28:43;8.30;99.90
40077;DHT22;25777;47.824;18.982;2023-04-24T00:31:09;8.30;99.90
40077;DHT22;25777;47.824;18.982;2023-04-24T00:33:51;8.50;99.90
40077;DHT22;25777;47.824;18.982;2023-04-24T00:36:28;8.60;99.90
40077;DHT22;25777;47.824;18.982;2023-04-24T00:39:07;8.50;99.90
40077;DHT22;25777;47.824;18.982;2023-04-24T00:41:37;8.40;99.90
40077;DHT22;25777;47.824;18.982;2023-04-24T00:44:04;8.60;99.90
40077;DHT22;25777;47.824;18.982;2023-04-24T00:49:24;8.70;99.90
40077;DHT22;25777;47.824;18.982;2023-04-24T00:51:51;8.60;99.90
40077;DHT22;25777;47.824;18.982;2023-04-24T00:54:17;8.80;99.90
40077;DHT22;25777;47.824;18.982;2023-04-24T00:56:44;9.00;99.90
40077;DHT22;25777;47.824;18.982;2023-04-24T00:59:10;9.10;99.90
40077;DHT22;25777;47.824;18.982;2023-04-24T01:04:12;8.80;99.90
40077;DHT22;25777;47.824;18.982;2023-04-24T01:06:39;8.80;99.90
40077;DHT22;25777;47.824;18.982;2023-04-24T01:09:06;8.80;99.90
40077;DHT22;25777;47.824;18.982;2023-04-24T01:11:36;9.10;99.90
40077;DHT22;25777;47.824;18.982;2023-04-24T01:14:01;9.00;99.90
40077;DHT22;25777;47.824;18.982;2023-04-24T01:16:27;8.90;99.90
40077;DHT22;25777;47.824;18.982;2023-04-24T01:18:53;8.90;99.90
40077;DHT22;25777;47.824;18.982;2023-04-24T01:21:19;9.00;99.90
40077;DHT22;25777;47.824;18.982;2023-04-24T01:23:46;9.20;99.90
40077;DHT22;25777;47.824;18.982;2023-04-24T01:26:15;9.30;99.90
40077;DHT22;25777;47.824;18.982;2023-04-24T01:28:42;9.30;99.90
40077;DHT22;25777;47.824;18.982;2023-04-24T01:31:10;9.20;99.90
40077;DHT22;25777;47.824;18.982;2023-04-24T01:33:36;9.30;99.90
40077;DHT22;25777;47.824;18.982;2023-04-24T01:36:01;9.30;99.90
40077;DHT22;25777;47.824;18.982;2023-04-24T01:38:27;9.30;99.90
40077;DHT22;25777;47.824;18.982;2023-04-24T01:40:53;9.40;99.90
40077;DHT22;25777;47.824;18.982;2023-04-24T01:43:19;9.40;99.90
40077;DHT22;25777;47.824;18.982;2023-04-24T01:45:45;9.40;99.90
40077;DHT22;25777;47.824;18.982;2023-04-24T01:48:11;9.50;99.90
40077;DHT22;25777;47.824;18.982;2023-04-24T01:50:37;9.50;99.90
40077;DHT22;25777;47.824;18.982;2023-04-24T01:53:03;9.60;99.90
40077;DHT22;25777;47.824;18.982;2023-04-24T01:55:31;9.60;99.90
40077;DHT22;25777;47.824;18.982;2023-04-24T01:58:00;9.50;99.90
40077;DHT22;25777;47.824;18.982;2023-04-24T02:00:27;9.40;99.90
40077;DHT22;25777;47.824;18.982;2023-04-24T02:02:53;9.40;99.90
40077;DHT22;25777;47.824;18.982;2023-04-24T02:05:19;9.40;99.90
40077;DHT22;25777;47.824;18.982;2023-04-24T02:07:45;9.40;99.90
40077;DHT22;25777;47.824;18.982;2023-04-24T02:10:11;9.50;99.90
40077;DHT22;25777;47.824;18.982;2023-04-24T02:12:36;9.50;99.90
40077;DHT22;25777;47.824;18.982;2023-04-24T02:15:04;9.50;99.90
40077;DHT22;25777;47.824;18.982;2023-04-24T02:17:30;9.50;99.90
40077;DHT22;25777;47.824;18.982;2023-04-24T02:19:56;9.60;99.90
40077;DHT22;25777;47.824;18.982;2023-04-24T02:22:29;9.40;99.90
40077;DHT22;25777;47.824;18.982;2023-04-24T02:24:56;9.30;99.90
40077;DHT22;25777;47.824;18.982;2023-04-24T02:27:24;9.30;99.90
40077;DHT22;25777;47.824;18.982;2023-04-24T02:29:52;9.20;99.90
40077;DHT22;25777;47.824;18.982;2023-04-24T02:32:18;9.30;99.90
40077;DHT22;25777;47.824;18.982;2023-04-24T02:34:46;9.40;99.90
40077;DHT22;25777;47.824;18.982;2023-04-24T02:37:20;9.50;99.90
40077;DHT22;25777;47.824;18.982;2023-04-24T02:39:48;9.50;99.90
40077;DHT22;25777;47.824;18.982;2023-04-24T02:42:14;9.60;99.90
40077;DHT22;25777;47.824;18.982;2023-04-24T02:49:52;9.50;99.90
40077;DHT22;25777;47.824;18.982;2023-04-24T02:52:25;9.60;99.90
40077;DHT22;25777;47.824;18.982;2023-04-24T02:54:52;9.60;99.90
40077;DHT22;25777;47.824;18.982;2023-04-24T02:57:24;9.60;99.90
40077;DHT22;25777;47.824;18.982;2023-04-24T02:59:51;9.60;99.90
40077;DHT22;25777;47.824;18.982;2023-04-24T03:02:17;9.60;99.90
40077;DHT22;25777;47.824;18.982;2023-04-24T03:04:59;9.60;99.90
40077;DHT22;25777;47.824;18.982;2023-04-24T03:12:54;9.50;99.90
40077;DHT22;25777;47.824;18.982;2023-04-24T03:15:33;9.50;99.90
40077;DHT22;25777;47.824;18.982;2023-04-24T03:17:59;9.50;99.90
40077;DHT22;25777;47.824;18.982;2023-04-24T03:20:32;9.60;99.90
40077;DHT22;25777;47.824;18.982;2023-04-24T03:22:58;9.60;99.90
40077;DHT22;25777;47.824;18.982;2023-04-24T03:25:23;9.50;99.90
40077;DHT22;25777;47.824;18.982;2023-04-24T03:30:22;9.50;99.90
40077;DHT22;25777;47.824;18.982;2023-04-24T03:32:55;9.60;99.90
40077;DHT22;25777;47.824;18.982;2023-04-24T03:35:22;9.60;99.90
40077;DHT22;25777;47.824;18.982;2023-04-24T03:37:48;9.60;99.90
40077;DHT22;25777;47.824;18.982;2023-04-24T03:42:54;9.70;99.90
40077;DHT22;25777;47.824;18.982;2023-04-24T03:45:21;9.60;99.90
40077;DHT22;25777;47.824;18.982;2023-04-24T03:47:48;9.70;99.90
40077;DHT22;25777;47.824;18.982;2023-04-24T03:55:48;9.70;99.90
40077;DHT22;25777;47.824;18.982;2023-04-24T03:58:14;9.70;99.90
40077;DHT22;25777;47.824;18.982;2023-04-24T04:00:40;9.70;99.90
40077;DHT22;25777;47.824;18.982;2023-04-24T04:03:06;9.70;99.90
40077;DHT22;25777;47.824;18.982;2023-04-24T04:05:33;9.70;99.90
40077;DHT22;25777;47.824;18.982;2023-04-24T04:08:04;9.70;99.90
40077;DHT22;25777;47.824;18.982;2023-04-24T04:10:30;9.80;99.90
40077;DHT22;25777;47.824;18.982;2023-04-24T04:13:06;9.80;99.90
40077;DHT22;25777;47.824;18.982;2023-04-24T04:15:46;9.80;99.90
40077;DHT22;25777;47.824;18.982;2023-04-24T04:18:13;9.70;99.90
40077;DHT22;25777;47.824;18.982;2023-04-24T04:23:17;9.80;99.90
40077;DHT22;25777;47.824;18.982;2023-04-24T04:25:44;9.90;99.90
40077;DHT22;25777;47.824;18.982;2023-04-24T04:28:14;9.80;99.90
40077;DHT22;25777;47.824;18.982;2023-04-24T04:33:13;9.80;99.90
40077;DHT22;25777;47.824;18.982;2023-04-24T04:35:40;9.80;99.90
40077;DHT22;25777;47.824;18.982;2023-04-24T04:38:13;9.90;99.90
40077;DHT22;25777;47.824;18.982;2023-04-24T04:40:44;9.90;99.90
40077;DHT22;25777;47.824;18.982;2023-04-24T04:45:41;9.90;99.90
40077;DHT22;25777;47.824;18.982;2023-04-24T04:48:14;9.90;99.90
40077;DHT22;25777;47.824;18.982;2023-04-24T04:50:48;9.90;99.90
40077;DHT22;25777;47.824;18.982;2023-04-24T04:53:15;9.90;99.90
40077;DHT22;25777;47.824;18.982;2023-04-24T04:55:42;9.90;99.90
40077;DHT22;25777;47.824;18.982;2023-04-24T04:58:13;9.90;99.90
40077;DHT22;25777;47.824;18.982;2023-04-24T05:03:11;9.90;99.90
40077;DHT22;25777;47.824;18.982;2023-04-24T05:05:43;9.90;99.90
40077;DHT22;25777;47.824;18.982;2023-04-24T05:08:09;9.90;99.90
40077;DHT22;25777;47.824;18.982;2023-04-24T05:10:36;10.00;99.90
40077;DHT22;25777;47.824;18.982;2023-04-24T05:13:05;10.00;99.90
40077;DHT22;25777;47.824;18.982;2023-04-24T05:15:33;10.00;99.90
40077;DHT22;25777;47.824;18.982;2023-04-24T05:17:59;10.00;99.90
40077;DHT22;25777;47.824;18.982;2023-04-24T05:20:27;10.10;99.90
40077;DHT22;25777;47.824;18.982;2023-04-24T05:22:57;10.10;99.90
40077;DHT22;25777;47.824;18.982;2023-04-24T05:27:54;10.20;99.90
40077;DHT22;25777;47.824;18.982;2023-04-24T05:30:26;10.20;99.90
40077;DHT22;25777;47.824;18.982;2023-04-24T05:32:54;10.20;99.90
40077;DHT22;25777;47.824;18.982;2023-04-24T05:35:31;10.30;99.90
40077;DHT22;25777;47.824;18.982;2023-04-24T05:37:59;10.30;99.90
40077;DHT22;25777;47.824;18.982;2023-04-24T05:40:34;10.20;99.90
40077;DHT22;25777;47.824;18.982;2023-04-24T05:43:01;10.30;99.90
40077;DHT22;25777;47.824;18.982;2023-04-24T05:47:58;10.30;99.90
40077;DHT22;25777;47.824;18.982;2023-04-24T05:50:23;10.40;99.90
40077;DHT22;25777;47.824;18.982;2023-04-24T05:52:51;10.40;99.90
40077;DHT22;25777;47.824;18.982;2023-04-24T05:55:17;10.40;99.90
40077;DHT22;25777;47.824;18.982;2023-04-24T05:57:45;10.50;99.90
40077;DHT22;25777;47.824;18.982;2023-04-24T06:00:11;10.60;99.90
40077;DHT22;25777;47.824;18.982;2023-04-24T06:07:35;10.60;99.90
40077;DHT22;25777;47.824;18.982;2023-04-24T06:12:37;10.70;99.90
40077;DHT22;25777;47.824;18.982;2023-04-24T06:17:40;10.60;99.90
40077;DHT22;25777;47.824;18.982;2023-04-24T06:22:54;10.70;99.90
40077;DHT22;25777;47.824;18.982;2023-04-24T06:25:20;10.60;99.90
40077;DHT22;25777;47.824;18.982;2023-04-24T06:27:55;10.70;99.90
40077;DHT22;25777;47.824;18.982;2023-04-24T06:30:21;10.70;99.90
40077;DHT22;25777;47.824;18.982;2023-04-24T06:32:48;10.70;99.90
40077;DHT22;25777;47.824;18.982;2023-04-24T06:35:14;10.90;99.90
40077;DHT22;25777;47.824;18.982;2023-04-24T06:37:42;11.00;99.90
40077;DHT22;25777;47.824;18.982;2023-04-24T06:40:10;11.10;99.90
40077;DHT22;25777;47.824;18.982;2023-04-24T06:42:36;11.20;99.90
40077;DHT22;25777;47.824;18.982;2023-04-24T06:45:01;11.30;99.90
40077;DHT22;25777;47.824;18.982;2023-04-24T06:47:27;11.40;99.90
40077;DHT22;25777;47.824;18.982;2023-04-24T06:49:53;11.40;99.90
40077;DHT22;25777;47.824;18.982;2023-04-24T06:52:31;11.50;99.90
40077;DHT22;25777;47.824;18.982;2023-04-24T06:57:35;11.60;99.90
40077;DHT22;25777;47.824;18.982;2023-04-24T07:00:02;11.60;99.90
40077;DHT22;25777;47.824;18.982;2023-04-24T07:07:35;11.70;99.90
40077;DHT22;25777;47.824;18.982;2023-04-24T07:10:03;11.80;99.90
40077;DHT22;25777;47.824;18.982;2023-04-24T07:12:32;11.90;99.90
40077;DHT22;25777;47.824;18.982;2023-04-24T07:14:59;12.00;99.90
40077;DHT22;25777;47.824;18.982;2023-04-24T07:17:25;12.00;99.90
40077;DHT22;25777;47.824;18.982;2023-04-24T07:22:21;12.20;99.90
40077;DHT22;25777;47.824;18.982;2023-04-24T07:24:47;12.20;99.90
40077;DHT22;25777;47.824;18.982;2023-04-24T07:27:13;12.30;99.90
40077;DHT22;25777;47.824;18.982;2023-04-24T07:29:45;12.30;99.90
40077;DHT22;25777;47.824;18.982;2023-04-24T07:32:11;12.40;99.90
40077;DHT22;25777;47.824;18.982;2023-04-24T07:34:38;12.60;99.90
40077;DHT22;25777;47.824;18.982;2023-04-24T07:37:04;12.70;99.90
40077;DHT22;25777;47.824;18.982;2023-04-24T07:39:30;12.90;99.90
40077;DHT22;25777;47.824;18.982;2023-04-24T07:41:57;12.90;99.90
40077;DHT22;25777;47.824;18.982;2023-04-24T07:44:25;13.00;99.90
40077;DHT22;25777;47.824;18.982;2023-04-24T07:46:53;13.10;99.90
40077;DHT22;25777;47.824;18.982;2023-04-24T07:49:25;13.10;99.90
40077;DHT22;25777;47.824;18.982;2023-04-24T07:51:53;13.10;99.90
40077;DHT22;25777;47.824;18.982;2023-04-24T07:54:19;13.50;99.90
40077;DHT22;25777;47.824;18.982;2023-04-24T07:56:45;13.70;99.90
40077;DHT22;25777;47.824;18.982;2023-04-24T07:59:12;13.60;99.90
40077;DHT22;25777;47.824;18.982;2023-04-24T08:01:39;13.70;99.90
40077;DHT22;25777;47.824;18.982;2023-04-24T08:04:05;13.80;99.90
40077;DHT22;25777;47.824;18.982;2023-04-24T08:09:04;13.70;99.90
40077;DHT22;25777;47.824;18.982;2023-04-24T08:11:29;13.60;99.90
40077;DHT22;25777;47.824;18.982;2023-04-24T08:13:56;13.80;99.90
40077;DHT22;25777;47.824;18.982;2023-04-24T08:16:27;13.90;99.90
40077;DHT22;25777;47.824;18.982;2023-04-24T08:18:53;13.90;99.90
40077;DHT22;25777;47.824;18.982;2023-04-24T08:21:19;14.00;99.90
40077;DHT22;25777;47.824;18.982;2023-04-24T08:23:48;14.20;99.90
40077;DHT22;25777;47.824;18.982;2023-04-24T08:28:43;14.70;99.90
40077;DHT22;25777;47.824;18.982;2023-04-24T08:31:09;14.50;99.90
40077;DHT22;25777;47.824;18.982;2023-04-24T08:33:39;14.60;99.90
40077;DHT22;25777;47.824;18.982;2023-04-24T08:36:06;14.90;99.90
40077;DHT22;25777;47.824;18.982;2023-04-24T08:38:33;15.30;99.90
40077;DHT22;25777;47.824;18.982;2023-04-24T08:41:05;15.50;99.90
40077;DHT22;25777;47.824;18.982;2023-04-24T08:43:33;16.00;99.90
40077;DHT22;25777;47.824;18.982;2023-04-24T08:46:01;16.20;99.90
40077;DHT22;25777;47.824;18.982;2023-04-24T08:48:28;16.30;99.90
40077;DHT22;25777;47.824;18.982;2023-04-24T08:50:54;16.20;99.90
40077;DHT22;25777;47.824;18.982;2023-04-24T08:53:28;16.50;99.90
40077;DHT22;25777;47.824;18.982;2023-04-24T08:55:55;16.50;99.90
40077;DHT22;25777;47.824;18.982;2023-04-24T08:58:22;16.30;99.90
40077;DHT22;25777;47.824;18.982;2023-04-24T09:00:48;16.60;99.90
40077;DHT22;25777;47.824;18.982;2023-04-24T09:03:18;16.90;99.90
40077;DHT22;25777;47.824;18.982;2023-04-24T09:05:47;16.80;99.90
40077;DHT22;25777;47.824;18.982;2023-04-24T09:08:14;16.90;99.90
40077;DHT22;25777;47.824;18.982;2023-04-24T09:10:41;16.60;99.90
40077;DHT22;25777;47.824;18.982;2023-04-24T09:13:09;16.30;99.90
40077;DHT22;25777;47.824;18.982;2023-04-24T09:15:40;16.50;99.90
40077;DHT22;25777;47.824;18.982;2023-04-24T09:18:06;16.60;99.90
40077;DHT22;25777;47.824;18.982;2023-04-24T09:20:33;17.00;99.90
40077;DHT22;25777;47.824;18.982;2023-04-24T09:23:02;16.90;99.90
40077;DHT22;25777;47.824;18.982;2023-04-24T09:25:32;16.60;99.90
40077;DHT22;25777;47.824;18.982;2023-04-24T09:30:33;17.10;99.90
40077;DHT22;25777;47.824;18.982;2023-04-24T09:33:13;17.30;99.90
40077;DHT22;25777;47.824;18.982;2023-04-24T09:35:49;17.70;98.90
40077;DHT22;25777;47.824;18.982;2023-04-24T09:40:45;17.80;98.10
40077;DHT22;25777;47.824;18.982;2023-04-24T09:43:13;17.60;99.60
40077;DHT22;25777;47.824;18.982;2023-04-24T09:48:10;17.60;99.60
40077;DHT22;25777;47.824;18.982;2023-04-24T09:50:36;17.90;99.90
40077;DHT22;25777;47.824;18.982;2023-04-24T09:53:03;18.10;97.80
40077;DHT22;25777;47.824;18.982;2023-04-24T09:55:30;18.60;96.30
40077;DHT22;25777;47.824;18.982;2023-04-24T10:00:26;18.50;98.10
40077;DHT22;25777;47.824;18.982;2023-04-24T10:05:40;18.10;95.70
40077;DHT22;25777;47.824;18.982;2023-04-24T10:08:14;18.20;96.70
40077;DHT22;25777;47.824;18.982;2023-04-24T10:13:12;17.90;96.20
40077;DHT22;25777;47.824;18.982;2023-04-24T10:15:38;17.60;96.20
40077;DHT22;25777;47.824;18.982;2023-04-24T10:18:05;17.40;96.20
40077;DHT22;25777;47.824;18.982;2023-04-24T10:23:21;17.30;96.80
40077;DHT22;25777;47.824;18.982;2023-04-24T10:25:48;17.40;95.40
40077;DHT22;25777;47.824;18.982;2023-04-24T10:28:16;17.40;95.40
40077;DHT22;25777;47.824;18.982;2023-04-24T10:30:43;17.50;94.60
40077;DHT22;25777;47.824;18.982;2023-04-24T10:33:08;17.60;94.10
40077;DHT22;25777;47.824;18.982;2023-04-24T10:35:35;17.50;93.80
40077;DHT22;25777;47.824;18.982;2023-04-24T10:38:03;17.50;93.50
40077;DHT22;25777;47.824;18.982;2023-04-24T10:40:33;17.50;95.10
40077;DHT22;25777;47.824;18.982;2023-04-24T10:43:01;17.60;95.10
40077;DHT22;25777;47.824;18.982;2023-04-24T10:45:27;17.70;93.40
40077;DHT22;25777;47.824;18.982;2023-04-24T10:48:05;17.60;93.50
40077;DHT22;25777;47.824;18.982;2023-04-24T10:55:48;17.50;93.70
40077;DHT22;25777;47.824;18.982;2023-04-24T10:58:18;17.50;93.10
40077;DHT22;25777;47.824;18.982;2023-04-24T11:00:55;17.50;93.00
40077;DHT22;25777;47.824;18.982;2023-04-24T11:05:52;17.40;94.00
40077;DHT22;25777;47.824;18.982;2023-04-24T11:08:26;17.20;94.80
40077;DHT22;25777;47.824;18.982;2023-04-24T11:10:58;17.10;94.60
40077;DHT22;25777;47.824;18.982;2023-04-24T11:13:25;17.00;98.80
40077;DHT22;25777;47.824;18.982;2023-04-24T11:18:57;17.00;96.40
40077;DHT22;25777;47.824;18.982;2023-04-24T11:21:30;17.20;94.30
40077;DHT22;25777;47.824;18.982;2023-04-24T11:23:57;17.20;95.80
40077;DHT22;25777;47.824;18.982;2023-04-24T11:26:23;17.30;94.70
40077;DHT22;25777;47.824;18.982;2023-04-24T11:29:06;17.40;94.70
40077;DHT22;25777;47.824;18.982;2023-04-24T11:31:39;17.40;93.90
40077;DHT22;25777;47.824;18.982;2023-04-24T11:34:10;17.50;94.30
40077;DHT22;25777;47.824;18.982;2023-04-24T11:36:49;17.40;94.20
40077;DHT22;25777;47.824;18.982;2023-04-24T11:39:21;17.40;94.20
40077;DHT22;25777;47.824;18.982;2023-04-24T11:41:47;17.20;94.50
40077;DHT22;25777;47.824;18.982;2023-04-24T11:46:50;17.10;95.10
40077;DHT22;25777;47.824;18.982;2023-04-24T11:49:15;17.00;95.40
40077;DHT22;25777;47.824;18.982;2023-04-24T11:51:41;17.00;96.10
40077;DHT22;25777;47.824;18.982;2023-04-24T11:54:07;16.90;95.60
40077;DHT22;25777;47.824;18.982;2023-04-24T11:56:33;16.90;95.60
40077;DHT22;25777;47.824;18.982;2023-04-24T11:59:03;16.90;96.60
40077;DHT22;25777;47.824;18.982;2023-04-24T12:01:29;16.80;97.10
40077;DHT22;25777;47.824;18.982;2023-04-24T12:04:01;16.70;97.50
40077;DHT22;25777;47.824;18.982;2023-04-24T12:06:27;16.60;97.90
40077;DHT22;25777;47.824;18.982;2023-04-24T12:08:52;16.60;97.50
40077;DHT22;25777;47.824;18.982;2023-04-24T12:11:28;16.60;97.60
40077;DHT22;25777;47.824;18.982;2023-04-24T12:13:54;16.60;97.70
40077;DHT22;25777;47.824;18.982;2023-04-24T12:16:22;16.70;97.40
40077;DHT22;25777;47.824;18.982;2023-04-24T12:18:50;16.90;98.50
40077;DHT22;25777;47.824;18.982;2023-04-24T12:21:28;16.80;97.50
40077;DHT22;25777;47.824;18.982;2023-04-24T12:23:55;17.00;97.10
40077;DHT22;25777;47.824;18.982;2023-04-24T12:26:21;17.00;97.30
40077;DHT22;25777;47.824;18.982;2023-04-24T12:28:48;17.10;96.10
40077;DHT22;25777;47.824;18.982;2023-04-24T12:31:16;17.10;97.40
40077;DHT22;25777;47.824;18.982;2023-04-24T12:33:59;17.10;98.20
40077;DHT22;25777;47.824;18.982;2023-04-24T12:36:28;17.10;97.60
40077;DHT22;25777;47.824;18.982;2023-04-24T12:38:54;17.20;96.00
40077;DHT22;25777;47.824;18.982;2023-04-24T12:41:20;17.10;95.90
40077;DHT22;25777;47.824;18.982;2023-04-24T12:46:49;17.10;95.60
40077;DHT22;25777;47.824;18.982;2023-04-24T12:49:21;16.90;96.00
40077;DHT22;25777;47.824;18.982;2023-04-24T12:51:49;16.90;96.90
40077;DHT22;25777;47.824;18.982;2023-04-24T12:54:17;16.70;99.90
40077;DHT22;25777;47.824;18.982;2023-04-24T12:59:15;16.60;99.90
40077;DHT22;25777;47.824;18.982;2023-04-24T13:01:41;16.40;99.90
40077;DHT22;25777;47.824;18.982;2023-04-24T13:04:09;16.20;99.90
40077;DHT22;25777;47.824;18.982;2023-04-24T13:06:35;16.20;99.90
40077;DHT22;25777;47.824;18.982;2023-04-24T13:09:01;16.10;99.90
40077;DHT22;25777;47.824;18.982;2023-04-24T13:11:28;15.90;99.90
40077;DHT22;25777;47.824;18.982;2023-04-24T13:13:55;15.90;99.90
40077;DHT22;25777;47.824;18.982;2023-04-24T13:16:21;15.70;99.90
40077;DHT22;25777;47.824;18.982;2023-04-24T13:18:48;15.70;99.90
40077;DHT22;25777;47.824;18.982;2023-04-24T13:21:17;15.70;99.90
40077;DHT22;25777;47.824;18.982;2023-04-24T13:23:44;15.70;99.90
40077;DHT22;25777;47.824;18.982;2023-04-24T13:26:11;15.60;99.90
40077;DHT22;25777;47.824;18.982;2023-04-24T13:28:41;15.60;99.90
40077;DHT22;25777;47.824;18.982;2023-04-24T13:31:11;15.40;99.90
40077;DHT22;25777;47.824;18.982;2023-04-24T13:33:37;15.30;99.90
40077;DHT22;25777;47.824;18.982;2023-04-24T13:36:05;15.10;99.90
40077;DHT22;25777;47.824;18.982;2023-04-24T13:38:32;15.00;99.90
40077;DHT22;25777;47.824;18.982;2023-04-24T13:40:58;14.90;99.90
40077;DHT22;25777;47.824;18.982;2023-04-24T13:45:54;14.90;99.90
40077;DHT22;25777;47.824;18.982;2023-04-24T13:48:21;14.90;99.90
40077;DHT22;25777;47.824;18.982;2023-04-24T13:50:58;14.90;99.90
40077;DHT22;25777;47.824;18.982;2023-04-24T13:53:25;14.80;99.90
40077;DHT22;25777;47.824;18.982;2023-04-24T13:55:51;14.70;99.90
40077;DHT22;25777;47.824;18.982;2023-04-24T13:58:18;14.70;99.90
40077;DHT22;25777;47.824;18.982;2023-04-24T14:00:44;14.70;99.90
40077;DHT22;25777;47.824;18.982;2023-04-24T14:03:09;14.70;99.90
40077;DHT22;25777;47.824;18.982;2023-04-24T14:05:38;14.60;99.90
40077;DHT22;25777;47.824;18.982;2023-04-24T14:08:11;14.60;99.90
40077;DHT22;25777;47.824;18.982;2023-04-24T14:10:38;14.60;99.90
40077;DHT22;25777;47.824;18.982;2023-04-24T14:13:04;14.60;99.90
40077;DHT22;25777;47.824;18.982;2023-04-24T14:15:31;14.50;99.90
40077;DHT22;25777;47.824;18.982;2023-04-24T14:18:03;14.50;99.90
40077;DHT22;25777;47.824;18.982;2023-04-24T14:20:29;14.40;99.90
40077;DHT22;25777;47.824;18.982;2023-04-24T14:22:55;14.30;99.90
40077;DHT22;25777;47.824;18.982;2023-04-24T14:25:23;14.30;99.90
40077;DHT22;25777;47.824;18.982;2023-04-24T14:27:50;14.20;99.90
40077;DHT22;25777;47.824;18.982;2023-04-24T14:30:16;14.20;99.90
40077;DHT22;25777;47.824;18.982;2023-04-24T14:32:42;14.20;99.90
40077;DHT22;25777;47.824;18.982;2023-04-24T14:35:08;14.20;99.90
40077;DHT22;25777;47.824;18.982;2023-04-24T14:37:35;14.20;99.90
40077;DHT22;25777;47.824;18.982;2023-04-24T14:42:31;14.10;99.90
40077;DHT22;25777;47.824;18.982;2023-04-24T14:44:58;14.00;99.90
40077;DHT22;25777;47.824;18.982;2023-04-24T14:47:24;14.00;99.90
40077;DHT22;25777;47.824;18.982;2023-04-24T14:52:19;14.10;99.90
40077;DHT22;25777;47.824;18.982;2023-04-24T14:54:45;14.10;99.90
40077;DHT22;25777;47.824;18.982;2023-04-24T14:57:12;14.10;99.90
40077;DHT22;25777;47.824;18.982;2023-04-24T14:59:38;14.10;99.90
40077;DHT22;25777;47.824;18.982;2023-04-24T15:02:04;14.20;99.90
40077;DHT22;25777;47.824;18.982;2023-04-24T15:04:31;14.30;99.90
40077;DHT22;25777;47.824;18.982;2023-04-24T15:06:57;14.30;99.90
40077;DHT22;25777;47.824;18.982;2023-04-24T15:09:23;14.30;99.90
40077;DHT22;25777;47.824;18.982;2023-04-24T15:11:50;14.20;99.90
40077;DHT22;25777;47.824;18.982;2023-04-24T15:14:16;14.20;99.90
40077;DHT22;25777;47.824;18.982;2023-04-24T15:16:42;14.30;99.90
40077;DHT22;25777;47.824;18.982;2023-04-24T15:19:08;14.30;99.90
40077;DHT22;25777;47.824;18.982;2023-04-24T15:21:35;14.30;99.90
40077;DHT22;25777;47.824;18.982;2023-04-24T15:24:04;14.30;99.90
40077;DHT22;25777;47.824;18.982;2023-04-24T15:26:32;14.20;99.90
40077;DHT22;25777;47.824;18.982;2023-04-24T15:28:58;14.20;99.90
40077;DHT22;25777;47.824;18.982;2023-04-24T15:31:25;14.20;99.90
40077;DHT22;25777;47.824;18.982;2023-04-24T15:36:21;14.30;99.90
40077;DHT22;25777;47.824;18.982;2023-04-24T15:38:53;14.20;99.90
40077;DHT22;25777;47.824;18.982;2023-04-24T15:41:19;14.20;99.90
40077;DHT22;25777;47.824;18.982;2023-04-24T15:43:46;14.20;99.90
40077;DHT22;25777;47.824;18.982;2023-04-24T15:46:12;14.10;99.90
40077;DHT22;25777;47.824;18.982;2023-04-24T15:48:46;14.10;99.90
40077;DHT22;25777;47.824;18.982;2023-04-24T15:51:12;14.10;99.90
40077;DHT22;25777;47.824;18.982;2023-04-24T15:53:39;14.00;99.90
40077;DHT22;25777;47.824;18.982;2023-04-24T15:56:04;14.00;99.90
40077;DHT22;25777;47.824;18.982;2023-04-24T15:58:30;13.90;99.90
40077;DHT22;25777;47.824;18.982;2023-04-24T16:00:58;13.90;99.90
40077;DHT22;25777;47.824;18.982;2023-04-24T16:03:24;13.80;99.90
40077;DHT22;25777;47.824;18.982;2023-04-24T16:05:51;13.80;99.90
40077;DHT22;25777;47.824;18.982;2023-04-24T16:10:47;13.70;99.90
40077;DHT22;25777;47.824;18.982;2023-04-24T16:13:13;13.60;99.90
40077;DHT22;25777;47.824;18.982;2023-04-24T16:15:39;13.70;99.90
40077;DHT22;25777;47.824;18.982;2023-04-24T16:18:10;13.60;99.90
40077;DHT22;25777;47.824;18.982;2023-04-24T16:20:36;13.50;99.90
40077;DHT22;25777;47.824;18.982;2023-04-24T16:23:03;13.40;99.90
40077;DHT22;25777;47.824;18.982;2023-04-24T16:25:31;13.40;99.90
40077;DHT22;25777;47.824;18.982;2023-04-24T16:27:58;13.40;99.90
40077;DHT22;25777;47.824;18.982;2023-04-24T16:30:25;13.40;99.90
40077;DHT22;25777;47.824;18.982;2023-04-24T16:32:51;13.40;99.90
40077;DHT22;25777;47.824;18.982;2023-04-24T16:35:23;13.30;99.90
40077;DHT22;25777;47.824;18.982;2023-04-24T16:38:05;13.20;99.90
40077;DHT22;25777;47.824;18.982;2023-04-24T16:40:37;13.20;99.90
40077;DHT22;25777;47.824;18.982;2023-04-24T16:43:07;13.20;99.90
40077;DHT22;25777;47.824;18.982;2023-04-24T16:45:44;13.30;99.90
40077;DHT22;25777;47.824;18.982;2023-04-24T16:48:10;13.30;99.90
40077;DHT22;25777;47.824;18.982;2023-04-24T16:50:37;13.20;99.90
40077;DHT22;25777;47.824;18.982;2023-04-24T16:53:03;13.20;99.90
40077;DHT22;25777;47.824;18.982;2023-04-24T16:55:31;13.20;99.90
40077;DHT22;25777;47.824;18.982;2023-04-24T16:57:58;13.10;99.90
40077;DHT22;25777;47.824;18.982;2023-04-24T17:00:37;13.10;99.90
40077;DHT22;25777;47.824;18.982;2023-04-24T17:03:03;13.10;99.90
40077;DHT22;25777;47.824;18.982;2023-04-24T17:05:29;13.00;99.90
40077;DHT22;25777;47.824;18.982;2023-04-24T17:07:55;13.00;99.90
40077;DHT22;25777;47.824;18.982;2023-04-24T17:10:21;13.00;99.90
40077;DHT22;25777;47.824;18.982;2023-04-24T17:12:48;13.00;99.90
40077;DHT22;25777;47.824;18.982;2023-04-24T17:15:24;13.00;99.90
40077;DHT22;25777;47.824;18.982;2023-04-24T17:20:32;12.90;99.90
40077;DHT22;25777;47.824;18.982;2023-04-24T17:25:48;12.90;99.90
40077;DHT22;25777;47.824;18.982;2023-04-24T17:28:24;12.80;99.90
40077;DHT22;25777;47.824;18.982;2023-04-24T17:30:51;12.80;99.90
40077;DHT22;25777;47.824;18.982;2023-04-24T17:33:21;12.80;99.90
40077;DHT22;25777;47.824;18.982;2023-04-24T17:35:59;12.70;99.90
40077;DHT22;25777;47.824;18.982;2023-04-24T17:38:29;12.70;99.90